Time;durP1;ratioP1;P1;durP2;ratioP2;P2;SDS_P1;SDS_P2;PMS_P1;PMS_P2;Temp;Humidity;BMP_temperature;BMP_pressure;BME280_temperature;BME280_humidity;BME280_pressure;Samples;Min_cycle;Max_cycle;Signal;HPM_P1;HPM_P2
2022/09/28 00:01:13;;;;;;;5.83;5.47;;;13.00;99.90;;;;;;5014231;28;20433;-67
2022/09/28 00:03:39;;;;;;;5.93;5.40;;;12.90;99.90;;;;;;5015179;28;20402;-66
2022/09/28 00:06:07;;;;;;;6.57;5.97;;;13.00;99.90;;;;;;5013698;28;20585;-67
2022/09/28 00:08:36;;;;;;;6.13;5.53;;;13.00;99.90;;;;;;5014838;28;20450;-67
2022/09/28 00:11:04;;;;;;;5.67;5.27;;;13.00;99.90;;;;;;5014165;28;20493;-67
2022/09/28 00:13:32;;;;;;;6.50;5.90;;;13.00;99.90;;;;;;5014914;28;20427;-67
2022/09/28 00:16:13;;;;;;;6.10;5.60;;;13.00;99.90;;;;;;5014770;28;20419;-67
2022/09/28 00:18:39;;;;;;;6.60;6.10;;;13.00;99.90;;;;;;5013719;28;20584;-67
2022/09/28 00:21:08;;;;;;;6.27;5.77;;;13.00;99.90;;;;;;5013220;28;20530;-67
2022/09/28 00:24:11;;;;;;;5.93;5.43;;;13.10;99.90;;;;;;4996788;28;20422;-67
2022/09/28 00:26:20;;;;;;;5.93;5.53;;;13.00;99.90;;;;;;5013830;28;20439;-67
2022/09/28 00:28:46;;;;;;;6.70;6.10;;;13.10;99.90;;;;;;5013498;28;20901;-67
2022/09/28 00:31:12;;;;;;;5.50;5.10;;;13.10;99.90;;;;;;5012708;28;20214;-67
2022/09/28 00:33:39;;;;;;;5.10;4.77;;;13.10;99.90;;;;;;5014399;28;20190;-66
2022/09/28 00:36:05;;;;;;;6.03;5.53;;;13.10;99.90;;;;;;4995850;28;20435;-67
2022/09/28 00:38:31;;;;;;;5.53;5.10;;;13.10;99.90;;;;;;5012889;28;20435;-67
2022/09/28 00:40:58;;;;;;;5.43;5.13;;;13.20;99.90;;;;;;5013324;28;20448;-67
2022/09/28 00:43:25;;;;;;;5.70;5.17;;;13.20;99.90;;;;;;5013550;28;20615;-67
2022/09/28 00:46:02;;;;;;;5.40;5.00;;;13.20;99.90;;;;;;5014322;28;20427;-67
2022/09/28 00:48:32;;;;;;;5.50;5.00;;;13.20;99.90;;;;;;5011304;28;20433;-67
2022/09/28 00:51:03;;;;;;;5.20;4.90;;;13.20;99.90;;;;;;5013174;28;20463;-67
2022/09/28 00:53:33;;;;;;;6.27;5.40;;;13.20;99.90;;;;;;5013201;28;20485;-67
2022/09/28 00:56:06;;;;;;;5.83;5.43;;;13.20;99.90;;;;;;4994464;28;20470;-67
2022/09/28 00:58:43;;;;;;;5.70;5.20;;;13.20;99.90;;;;;;4993335;28;20515;-67
2022/09/28 01:01:08;;;;;;;6.30;5.80;;;13.20;99.90;;;;;;4997530;28;20439;-67
2022/09/28 01:03:36;;;;;;;5.70;5.30;;;13.10;99.90;;;;;;4947005;28;20480;-67
2022/09/28 01:06:03;;;;;;;5.60;5.20;;;13.20;99.90;;;;;;5027785;28;20215;-67
2022/09/28 01:08:31;;;;;;;5.30;4.90;;;13.20;99.90;;;;;;5033042;28;20422;-67
2022/09/28 01:10:58;;;;;;;5.30;4.90;;;13.20;99.90;;;;;;5019422;28;20468;-68
2022/09/28 01:13:25;;;;;;;4.40;4.10;;;13.10;99.90;;;;;;4996071;28;20442;-67
2022/09/28 01:16:13;;;;;;;4.77;4.37;;;13.10;99.90;;;;;;5033353;28;20417;-67
2022/09/28 01:19:00;;;;;;;4.20;3.90;;;13.10;99.90;;;;;;5005035;28;20425;-67
2022/09/28 01:21:26;;;;;;;4.97;4.57;;;13.10;99.90;;;;;;5032732;28;20901;-66
2022/09/28 01:24:18;;;;;;;5.13;4.73;;;13.10;99.90;;;;;;5032945;28;20421;-67
2022/09/28 01:26:55;;;;;;;5.40;5.00;;;13.10;99.90;;;;;;5027262;28;20430;-67
2022/09/28 01:29:39;;;;;;;4.77;4.47;;;13.00;99.90;;;;;;5012072;28;20426;-67
2022/09/28 01:32:15;;;;;;;5.30;5.00;;;13.00;99.90;;;;;;5023550;28;20476;-66
2022/09/28 01:35:10;;;;;;;4.93;4.60;;;13.00;99.90;;;;;;5033021;28;20409;-67
2022/09/28 01:37:55;;;;;;;4.10;3.90;;;13.00;99.90;;;;;;5032853;28;20920;-67
2022/09/28 01:40:24;;;;;;;4.57;4.27;;;13.00;99.90;;;;;;5032275;28;20400;-67
2022/09/28 01:42:57;;;;;;;5.00;4.70;;;13.00;99.90;;;;;;5022836;28;20495;-67
2022/09/28 01:45:27;;;;;;;4.63;4.30;;;13.00;99.90;;;;;;5012619;28;20398;-67
2022/09/28 01:47:59;;;;;;;4.67;4.37;;;13.00;99.90;;;;;;5012501;28;20524;-67
2022/09/28 01:50:28;;;;;;;4.43;4.13;;;13.00;99.90;;;;;;5012465;28;20453;-67
2022/09/28 01:53:22;;;;;;;4.70;4.30;;;13.00;99.90;;;;;;5012323;28;20835;-66
2022/09/28 01:55:54;;;;;;;5.07;4.70;;;13.00;99.90;;;;;;5013107;28;20574;-67
2022/09/28 01:58:43;;;;;;;5.50;5.10;;;13.00;99.90;;;;;;5012464;28;20402;-67
2022/09/28 02:01:17;;;;;;;5.30;4.90;;;13.00;99.90;;;;;;5014551;28;20441;-68
2022/09/28 02:03:59;;;;;;;4.73;4.43;;;13.00;99.90;;;;;;5032647;28;20435;-67
2022/09/28 02:06:51;;;;;;;5.00;4.70;;;12.90;99.90;;;;;;5026426;28;20476;-67
2022/09/28 02:09:22;;;;;;;5.20;4.80;;;12.90;99.90;;;;;;5012387;28;20407;-67
2022/09/28 02:11:57;;;;;;;4.80;4.50;;;12.90;99.90;;;;;;5012499;28;20930;-67
2022/09/28 02:14:24;;;;;;;5.53;5.03;;;12.90;99.90;;;;;;5011934;28;20899;-67
2022/09/28 02:16:53;;;;;;;5.30;5.00;;;12.90;99.90;;;;;;5011793;28;20954;-67
2022/09/28 02:19:22;;;;;;;5.57;5.17;;;12.90;99.90;;;;;;5011577;28;20462;-67
2022/09/28 02:21:59;;;;;;;4.97;4.67;;;12.90;99.90;;;;;;5012730;28;20476;-67
2022/09/28 02:25:00;;;;;;;4.87;4.57;;;12.90;99.90;;;;;;5012211;28;20493;-67
2022/09/28 02:27:51;;;;;;;5.73;5.13;;;12.90;99.90;;;;;;4953793;28;20444;-66
2022/09/28 02:30:17;;;;;;;6.00;5.53;;;12.90;99.90;;;;;;4992445;28;20447;-67
2022/09/28 02:32:47;;;;;;;6.23;5.63;;;12.80;99.90;;;;;;5029030;28;20455;-67
2022/09/28 02:35:16;;;;;;;6.50;6.00;;;12.80;99.90;;;;;;5024430;28;20914;-67
2022/09/28 02:37:43;;;;;;;6.77;6.27;;;12.80;99.90;;;;;;4995237;28;20849;-67
2022/09/28 02:40:15;;;;;;;7.50;6.80;;;12.80;99.90;;;;;;5012662;28;20456;-67
2022/09/28 02:42:50;;;;;;;7.33;6.63;;;12.80;99.90;;;;;;5011862;28;20515;-67
2022/09/28 02:45:34;;;;;;;8.50;7.27;;;12.80;99.90;;;;;;5011956;28;20425;-67
2022/09/28 02:48:54;;;;;;;8.77;8.07;;;12.80;99.90;;;;;;5012888;28;20459;-66
2022/09/28 02:51:44;;;;;;;7.80;7.10;;;12.80;99.90;;;;;;4932166;29;20653;-67
2022/09/28 02:54:12;;;;;;;9.13;8.23;;;12.80;99.90;;;;;;5015177;28;20489;-67
2022/09/28 02:56:41;;;;;;;9.17;8.37;;;12.80;99.90;;;;;;5016237;28;20486;-67
2022/09/28 02:59:37;;;;;;;9.50;8.50;;;12.90;99.90;;;;;;5016188;28;20418;-67
2022/09/28 03:02:17;;;;;;;9.23;8.30;;;12.90;99.90;;;;;;4961323;28;20452;-66
2022/09/28 03:05:11;;;;;;;9.53;8.70;;;13.00;99.90;;;;;;4996254;28;20542;-67
2022/09/28 03:07:45;;;;;;;9.00;8.10;;;12.90;99.90;;;;;;5009733;28;20532;-67
2022/09/28 03:10:23;;;;;;;10.27;9.17;;;12.80;99.90;;;;;;5016052;28;20453;-67
2022/09/28 03:12:50;;;;;;;9.80;8.80;;;12.90;99.90;;;;;;4998462;28;20428;-67
2022/09/28 03:15:25;;;;;;;10.30;9.30;;;12.90;99.90;;;;;;5015262;28;20425;-67
2022/09/28 03:17:51;;;;;;;9.80;8.90;;;12.90;99.90;;;;;;5015935;28;20414;-67
2022/09/28 03:20:17;;;;;;;12.30;9.67;;;12.90;99.90;;;;;;5014955;28;20425;-67
2022/09/28 03:22:43;;;;;;;10.70;9.70;;;12.90;99.90;;;;;;5015732;28;20428;-67
2022/09/28 03:25:10;;;;;;;11.70;10.47;;;12.90;99.90;;;;;;5015672;28;20762;-67
2022/09/28 03:27:36;;;;;;;10.40;9.30;;;12.90;99.90;;;;;;5015088;28;20421;-67
2022/09/28 03:30:03;;;;;;;12.17;10.27;;;12.90;99.90;;;;;;5015789;28;20452;-67
2022/09/28 03:32:28;;;;;;;11.50;10.30;;;12.90;99.90;;;;;;5013712;28;20590;-67
2022/09/28 03:34:54;;;;;;;11.33;10.03;;;12.90;99.90;;;;;;5015519;28;20553;-67
2022/09/28 03:37:20;;;;;;;11.40;10.20;;;12.90;99.90;;;;;;5014916;28;20582;-67
2022/09/28 03:39:48;;;;;;;12.70;10.40;;;13.00;99.90;;;;;;5015434;28;20409;-66
2022/09/28 03:42:14;;;;;;;12.70;11.50;;;12.90;99.90;;;;;;5014958;28;20537;-77
2022/09/28 03:44:39;;;;;;;11.70;10.50;;;12.90;99.90;;;;;;5015513;28;20415;-67
2022/09/28 03:47:07;;;;;;;11.60;10.50;;;13.00;99.90;;;;;;5015296;28;20175;-67
2022/09/28 03:49:33;;;;;;;11.60;10.40;;;12.90;99.90;;;;;;4997085;28;20179;-67
2022/09/28 03:51:59;;;;;;;11.23;10.10;;;12.90;99.90;;;;;;5015105;28;20450;-66
2022/09/28 03:54:24;;;;;;;12.47;11.30;;;12.90;99.90;;;;;;4997140;28;20218;-67
2022/09/28 03:56:50;;;;;;;11.87;10.57;;;12.90;99.90;;;;;;5014398;28;20956;-66
2022/09/28 03:59:16;;;;;;;11.37;10.27;;;12.90;99.90;;;;;;5014792;28;20217;-67
2022/09/28 04:01:42;;;;;;;12.30;11.07;;;12.90;99.90;;;;;;4996794;28;20481;-66
2022/09/28 04:04:12;;;;;;;11.17;10.00;;;12.90;99.90;;;;;;5014777;28;20446;-66
2022/09/28 04:06:37;;;;;;;12.80;11.53;;;12.90;99.90;;;;;;5033374;28;20215;-67
2022/09/28 04:09:03;;;;;;;15.70;12.67;;;12.90;99.90;;;;;;5017086;28;20484;-66
2022/09/28 04:11:29;;;;;;;16.13;12.70;;;12.90;99.90;;;;;;5034096;28;20558;-66
2022/09/28 04:13:55;;;;;;;15.50;13.90;;;12.90;99.90;;;;;;5034648;28;20180;-66
2022/09/28 04:16:20;;;;;;;13.80;11.90;;;12.90;99.90;;;;;;5024859;28;20224;-67
2022/09/28 04:18:47;;;;;;;14.40;12.90;;;12.90;99.90;;;;;;5014731;28;20177;-67
2022/09/28 04:21:16;;;;;;;14.00;12.50;;;12.90;99.90;;;;;;5013987;28;20182;-66
2022/09/28 04:23:42;;;;;;;16.03;12.07;;;12.90;99.90;;;;;;5014614;28;20443;-66
2022/09/28 04:26:16;;;;;;;14.90;13.37;;;12.90;99.90;;;;;;5014584;28;20421;-67
2022/09/28 04:31:28;;;;;;;14.50;13.00;;;12.90;99.90;;;;;;5024879;28;20463;-67
2022/09/28 04:33:56;;;;;;;17.77;13.60;;;12.90;99.90;;;;;;4966868;28;20562;-67
2022/09/28 04:36:23;;;;;;;13.60;12.00;;;12.90;99.90;;;;;;5033200;28;20420;-67
2022/09/28 04:38:52;;;;;;;18.40;16.60;;;12.90;99.90;;;;;;5034161;28;20421;-67
2022/09/28 04:41:19;;;;;;;17.70;13.87;;;12.90;99.90;;;;;;5033426;28;20419;-68
2022/09/28 04:43:48;;;;;;;18.13;15.50;;;12.90;99.90;;;;;;5032924;28;20424;-67
2022/09/28 04:46:14;;;;;;;16.40;13.90;;;12.90;99.90;;;;;;5020777;28;20436;-67
2022/09/28 04:48:40;;;;;;;19.00;16.27;;;12.90;99.90;;;;;;5013384;28;21123;-67
2022/09/28 04:51:06;;;;;;;20.70;16.33;;;12.90;99.90;;;;;;5016530;28;20202;-68
2022/09/28 04:53:32;;;;;;;19.73;14.87;;;12.80;99.90;;;;;;5020064;28;20438;-68
2022/09/28 04:56:00;;;;;;;17.50;13.97;;;12.80;99.90;;;;;;5014222;28;20807;-67
2022/09/28 04:58:26;;;;;;;16.53;13.70;;;12.80;99.90;;;;;;5013137;28;20175;-68
2022/09/28 05:00:56;;;;;;;16.27;13.60;;;12.80;99.90;;;;;;5016076;28;20429;-68
2022/09/28 05:03:22;;;;;;;14.97;13.10;;;12.80;99.90;;;;;;5011909;28;20996;-68
2022/09/28 05:05:48;;;;;;;15.87;14.17;;;12.80;99.90;;;;;;5025323;28;20571;-67
2022/09/28 05:08:15;;;;;;;16.23;14.50;;;12.80;99.90;;;;;;5033427;28;20196;-67
2022/09/28 05:10:41;;;;;;;17.10;14.83;;;12.80;99.90;;;;;;5032754;28;20464;-68
2022/09/28 05:13:11;;;;;;;17.93;13.33;;;12.80;99.90;;;;;;5032498;28;20527;-67
2022/09/28 05:15:38;;;;;;;14.13;12.63;;;12.80;99.90;;;;;;5031764;28;20389;-68
2022/09/28 05:18:05;;;;;;;15.90;13.60;;;12.90;99.90;;;;;;5032222;28;20427;-67
2022/09/28 05:20:31;;;;;;;15.70;14.10;;;12.80;99.90;;;;;;5031794;28;20481;-68
2022/09/28 05:22:57;;;;;;;17.50;13.50;;;12.80;99.90;;;;;;5032982;28;20424;-67
2022/09/28 05:25:23;;;;;;;15.43;11.90;;;12.80;99.90;;;;;;5031161;28;20471;-74
2022/09/28 05:27:55;;;;;;;16.70;11.77;;;12.80;99.90;;;;;;5032782;28;20417;-67
2022/09/28 05:30:21;;;;;;;16.47;12.37;;;12.70;99.90;;;;;;5030440;28;20501;-74
2022/09/28 05:32:49;;;;;;;13.73;12.20;;;12.80;99.90;;;;;;5031471;28;20444;-67
2022/09/28 05:35:15;;;;;;;13.83;12.10;;;12.70;99.90;;;;;;5029309;28;20431;-67
2022/09/28 05:37:41;;;;;;;15.87;14.30;;;12.80;99.90;;;;;;5031592;28;20448;-67
2022/09/28 05:40:07;;;;;;;13.53;12.07;;;12.80;99.90;;;;;;5032522;28;20634;-67
2022/09/28 05:42:33;;;;;;;16.10;14.40;;;12.80;99.90;;;;;;5032415;28;20189;-67
2022/09/28 05:44:58;;;;;;;16.73;14.10;;;12.80;99.90;;;;;;5032146;28;20421;-67
2022/09/28 05:47:27;;;;;;;16.80;13.90;;;12.80;99.90;;;;;;5032300;28;20229;-67
2022/09/28 05:49:53;;;;;;;18.23;13.90;;;12.80;99.90;;;;;;5032807;28;20174;-67
2022/09/28 05:52:19;;;;;;;16.40;14.20;;;12.80;99.90;;;;;;5032959;28;20468;-67
2022/09/28 05:54:45;;;;;;;14.30;12.37;;;12.80;99.90;;;;;;5030520;28;20431;-68
2022/09/28 05:57:11;;;;;;;16.77;13.20;;;12.90;99.90;;;;;;5030155;28;20193;-67
2022/09/28 05:59:37;;;;;;;13.90;12.50;;;12.80;99.90;;;;;;5027767;28;20820;-67
2022/09/28 06:02:03;;;;;;;16.63;14.40;;;12.90;99.90;;;;;;5031959;28;20489;-67
2022/09/28 06:04:29;;;;;;;16.13;14.40;;;12.90;99.90;;;;;;5031092;28;20654;-68
2022/09/28 06:06:55;;;;;;;17.50;15.60;;;12.90;99.90;;;;;;5007610;28;20534;-67
2022/09/28 06:09:24;;;;;;;18.10;15.60;;;12.90;99.90;;;;;;5012876;28;20640;-67
2022/09/28 06:11:51;;;;;;;15.80;14.10;;;12.80;99.90;;;;;;5012750;28;20465;-67
2022/09/28 06:14:16;;;;;;;20.20;15.47;;;12.80;99.90;;;;;;4995264;28;20793;-67
2022/09/28 06:16:43;;;;;;;17.20;15.40;;;12.80;99.90;;;;;;5011223;28;20737;-68
2022/09/28 06:19:09;;;;;;;17.17;14.40;;;12.90;99.90;;;;;;5012765;28;20411;-68
2022/09/28 06:21:35;;;;;;;16.80;14.33;;;12.90;99.90;;;;;;5012120;28;20467;-67
2022/09/28 06:24:01;;;;;;;18.07;15.20;;;12.80;99.90;;;;;;5012752;28;20423;-68
2022/09/28 06:26:27;;;;;;;15.80;14.07;;;12.90;99.90;;;;;;5011354;28;20430;-68
2022/09/28 06:28:53;;;;;;;17.93;14.57;;;12.90;99.90;;;;;;5014113;28;20434;-69
2022/09/28 06:31:22;;;;;;;18.50;14.63;;;12.90;99.90;;;;;;5030518;28;20233;-67
2022/09/28 06:33:49;;;;;;;16.30;14.23;;;12.90;99.90;;;;;;5035738;28;20255;-67
2022/09/28 06:36:15;;;;;;;15.67;14.17;;;12.90;99.90;;;;;;5020644;28;20538;-67
2022/09/28 06:38:41;;;;;;;19.40;14.80;;;12.90;99.90;;;;;;5015907;28;20420;-67
2022/09/28 06:41:08;;;;;;;16.97;14.13;;;12.90;99.90;;;;;;5015668;28;20426;-67
2022/09/28 06:43:34;;;;;;;17.00;15.20;;;12.80;99.90;;;;;;5015094;28;20465;-67
2022/09/28 06:46:00;;;;;;;15.17;13.70;;;12.90;99.90;;;;;;5008576;28;20992;-67
2022/09/28 06:48:26;;;;;;;17.57;15.80;;;13.00;99.90;;;;;;5001923;28;20554;-68
2022/09/28 06:50:52;;;;;;;16.37;14.57;;;13.00;99.90;;;;;;5016025;28;20465;-67
2022/09/28 06:53:18;;;;;;;17.50;15.60;;;13.00;99.90;;;;;;5012262;28;20428;-67
2022/09/28 06:55:47;;;;;;;16.40;14.70;;;13.00;99.90;;;;;;5011208;28;20186;-67
2022/09/28 06:58:16;;;;;;;17.23;15.33;;;13.10;99.90;;;;;;5016120;28;20411;-67
2022/09/28 07:00:42;;;;;;;18.00;16.07;;;13.10;99.90;;;;;;5023280;28;20429;-67
2022/09/28 07:03:12;;;;;;;20.60;17.10;;;13.00;99.90;;;;;;5025355;28;20505;-67
2022/09/28 07:05:48;;;;;;;20.17;15.27;;;13.10;99.90;;;;;;5024978;28;20476;-69
2022/09/28 07:08:14;;;;;;;18.57;16.27;;;13.10;99.90;;;;;;5035213;28;20501;-67
2022/09/28 07:10:45;;;;;;;16.67;14.73;;;13.10;99.90;;;;;;5031397;28;20456;-68
2022/09/28 07:13:12;;;;;;;17.80;15.60;;;13.10;99.90;;;;;;5035265;28;20433;-67
2022/09/28 07:15:39;;;;;;;17.50;15.13;;;13.20;99.90;;;;;;5033801;28;20440;-67
2022/09/28 07:18:06;;;;;;;19.17;16.30;;;13.10;99.90;;;;;;5019327;28;20451;-67
2022/09/28 07:20:35;;;;;;;17.83;16.03;;;13.20;99.90;;;;;;5022960;28;20429;-68
2022/09/28 07:23:04;;;;;;;18.80;15.27;;;13.20;99.90;;;;;;5035039;28;20837;-67
2022/09/28 07:25:31;;;;;;;20.87;17.00;;;13.30;99.90;;;;;;5033720;28;20492;-67
2022/09/28 07:28:02;;;;;;;20.40;16.40;;;13.40;99.90;;;;;;5034569;28;20429;-64
2022/09/28 07:30:34;;;;;;;19.80;17.70;;;13.60;99.90;;;;;;5034246;28;20821;-71
2022/09/28 07:33:00;;;;;;;20.57;17.80;;;13.80;99.90;;;;;;5034974;28;20450;-68
2022/09/28 07:35:27;;;;;;;21.03;16.80;;;14.20;99.90;;;;;;5035468;28;20455;-67
2022/09/28 07:37:59;;;;;;;18.40;16.43;;;14.50;99.90;;;;;;5017869;28;20417;-67
2022/09/28 07:43:11;;;;;;;18.50;16.60;;;14.90;99.90;;;;;;5034641;28;20416;-67
2022/09/28 07:45:38;;;;;;;21.53;15.67;;;15.20;99.90;;;;;;5034543;28;20902;-67
2022/09/28 07:48:04;;;;;;;18.03;16.13;;;15.30;99.90;;;;;;5017448;28;20421;-67
2022/09/28 07:50:30;;;;;;;18.33;16.37;;;15.50;99.90;;;;;;5028058;28;20462;-68
2022/09/28 07:52:56;;;;;;;22.63;17.57;;;15.70;99.90;;;;;;5023839;28;20415;-68
2022/09/28 07:55:22;;;;;;;19.93;17.87;;;15.80;99.90;;;;;;5022100;28;20446;-67
2022/09/28 07:58:00;;;;;;;20.20;16.13;;;15.90;99.90;;;;;;5023193;28;20432;-70
2022/09/28 08:00:31;;;;;;;18.23;16.43;;;16.00;99.90;;;;;;5026553;28;20533;-68
2022/09/28 08:03:00;;;;;;;17.93;15.90;;;16.10;99.90;;;;;;5023787;28;20418;-67
2022/09/28 08:05:30;;;;;;;15.07;13.23;;;16.20;99.90;;;;;;5023365;28;20448;-67
2022/09/28 08:07:57;;;;;;;18.37;15.27;;;16.20;99.90;;;;;;5023899;28;20478;-67
2022/09/28 08:10:24;;;;;;;23.10;20.70;;;16.30;99.90;;;;;;5027173;28;20917;-68
2022/09/28 08:12:57;;;;;;;19.83;16.40;;;16.30;99.90;;;;;;5022677;28;21055;-67
2022/09/28 08:15:23;;;;;;;19.60;15.90;;;16.30;99.90;;;;;;5026634;28;20507;-67
2022/09/28 08:17:49;;;;;;;18.90;16.17;;;16.30;99.90;;;;;;5023810;28;20526;-67
2022/09/28 08:23:10;;;;;;;443.37;315.30;;;16.30;99.90;;;;;;5026980;28;20458;-65
2022/09/28 08:25:36;;;;;;;29.83;24.50;;;16.50;99.90;;;;;;5022684;28;20496;-65
2022/09/28 08:28:03;;;;;;;47.83;39.03;;;16.70;99.90;;;;;;5024163;28;20504;-65
2022/09/28 08:30:30;;;;;;;66.17;47.97;;;16.80;99.90;;;;;;5024289;28;20521;-65
2022/09/28 08:32:56;;;;;;;66.70;51.47;;;17.00;99.90;;;;;;5024940;28;20463;-64
2022/09/28 08:35:25;;;;;;;34.93;30.60;;;17.10;99.50;;;;;;5023537;28;20453;-65
2022/09/28 08:37:52;;;;;;;28.77;24.17;;;17.20;98.70;;;;;;5022358;28;20187;-65
2022/09/28 08:40:24;;;;;;;27.73;24.80;;;17.20;97.80;;;;;;5022287;28;20889;-65
2022/09/28 08:42:59;;;;;;;23.70;20.90;;;17.20;98.10;;;;;;5022377;28;20410;-65
2022/09/28 08:45:30;;;;;;;23.73;20.57;;;17.20;97.90;;;;;;5024587;28;20404;-66
2022/09/28 08:51:14;;;;;;;202.27;173.10;;;17.30;97.40;;;;;;5024151;28;20447;-65
2022/09/28 08:54:08;;;;;;;52.57;40.50;;;17.20;97.30;;;;;;5026383;28;20424;-65
2022/09/28 08:56:39;;;;;;;44.30;35.80;;;16.50;98.70;;;;;;5025478;28;20925;-65
2022/09/28 08:59:13;;;;;;;44.83;35.00;;;16.40;99.50;;;;;;5024431;28;20903;-66
2022/09/28 09:01:46;;;;;;;36.00;29.97;;;16.60;99.20;;;;;;5028502;28;20436;-65
2022/09/28 09:04:13;;;;;;;17.13;15.53;;;16.70;99.00;;;;;;5025163;28;20438;-66
2022/09/28 09:06:52;;;;;;;16.13;14.53;;;16.70;98.60;;;;;;5024425;28;20464;-65
2022/09/28 09:09:24;;;;;;;21.87;19.57;;;16.70;98.80;;;;;;5023671;28;20461;-65
2022/09/28 09:12:01;;;;;;;24.00;20.57;;;16.80;98.50;;;;;;5019144;28;20453;-65
2022/09/28 09:14:26;;;;;;;19.23;17.33;;;16.90;98.80;;;;;;4941817;28;20435;-65
2022/09/28 09:16:57;;;;;;;22.50;18.80;;;16.90;98.90;;;;;;5005559;28;20425;-65
2022/09/28 09:19:46;;;;;;;19.13;17.13;;;16.90;99.10;;;;;;5021333;28;20176;-65
2022/09/28 09:22:16;;;;;;;23.47;18.80;;;17.00;98.50;;;;;;5021440;28;20472;-65
2022/09/28 09:25:00;;;;;;;18.53;16.63;;;17.00;98.70;;;;;;5025695;28;20437;-65
2022/09/28 09:27:55;;;;;;;17.77;15.87;;;17.10;97.90;;;;;;5027845;28;20435;-65
2022/09/28 09:30:21;;;;;;;18.80;16.90;;;17.10;98.00;;;;;;5021137;28;20500;-65
2022/09/28 09:33:05;;;;;;;19.13;17.23;;;17.10;98.20;;;;;;5019123;28;20504;-65
2022/09/28 09:35:58;;;;;;;15.73;14.33;;;17.20;97.80;;;;;;5023312;28;20182;-65
2022/09/28 09:38:46;;;;;;;17.33;15.13;;;17.30;97.40;;;;;;5023298;28;20426;-66
2022/09/28 09:41:19;;;;;;;15.70;14.00;;;17.30;97.70;;;;;;5019962;28;20464;-66
2022/09/28 09:44:12;;;;;;;14.97;13.47;;;17.20;97.10;;;;;;5020556;28;20411;-65
2022/09/28 09:46:50;;;;;;;14.30;12.80;;;17.20;97.50;;;;;;5003504;28;20425;-65
2022/09/28 09:49:39;;;;;;;15.57;14.00;;;17.30;97.30;;;;;;5021567;28;20406;-65
2022/09/28 09:52:26;;;;;;;16.13;14.63;;;17.30;97.10;;;;;;5020129;28;20807;-65
2022/09/28 09:55:02;;;;;;;16.67;14.30;;;17.30;96.50;;;;;;5008922;28;20449;-65
2022/09/28 09:58:01;;;;;;;15.10;13.73;;;17.00;96.80;;;;;;5024485;28;20420;-65
2022/09/28 10:00:27;;;;;;;15.90;14.30;;;16.90;97.70;;;;;;5021813;28;20401;-65
2022/09/28 10:02:55;;;;;;;26.63;23.70;;;17.00;97.60;;;;;;5023417;28;20448;-65
2022/09/28 10:05:26;;;;;;;39.37;31.03;;;17.10;97.20;;;;;;5021264;28;20898;-65
2022/09/28 10:08:02;;;;;;;18.97;17.10;;;17.00;96.60;;;;;;5020834;28;20428;-65
2022/09/28 10:10:37;;;;;;;25.43;22.73;;;16.90;96.60;;;;;;5020116;28;20511;-65
2022/09/28 10:13:06;;;;;;;15.60;14.10;;;16.80;97.10;;;;;;5021093;28;20905;-65
2022/09/28 10:15:34;;;;;;;26.10;23.23;;;16.60;96.60;;;;;;5021408;28;20424;-66
2022/09/28 10:18:05;;;;;;;21.27;18.87;;;16.60;98.20;;;;;;5021435;28;20934;-65
2022/09/28 10:20:34;;;;;;;16.43;14.80;;;16.40;97.80;;;;;;5023248;28;20420;-65
2022/09/28 10:23:03;;;;;;;25.60;19.03;;;16.10;97.90;;;;;;5004205;28;20474;-65
2022/09/28 10:25:32;;;;;;;19.43;17.40;;;16.00;99.10;;;;;;5024870;28;20835;-65
2022/09/28 10:28:00;;;;;;;13.53;12.23;;;16.20;99.20;;;;;;5021920;28;20511;-65
2022/09/28 10:30:27;;;;;;;16.03;14.43;;;16.20;98.40;;;;;;5020577;28;20466;-65
2022/09/28 10:32:59;;;;;;;19.87;17.83;;;16.10;98.70;;;;;;5022405;28;20420;-64
2022/09/28 10:35:28;;;;;;;14.47;12.90;;;16.40;98.70;;;;;;5025183;28;20855;-65
2022/09/28 10:38:21;;;;;;;17.33;13.97;;;16.50;98.20;;;;;;5020865;28;20418;-66
2022/09/28 10:40:54;;;;;;;13.33;12.03;;;16.50;97.80;;;;;;5017127;28;20849;-65
2022/09/28 10:43:30;;;;;;;14.83;13.33;;;16.50;97.70;;;;;;5021447;28;20776;-65
2022/09/28 10:46:13;;;;;;;13.40;12.23;;;16.70;97.70;;;;;;5000919;28;20913;-65
2022/09/28 10:48:54;;;;;;;14.43;13.10;;;16.80;97.20;;;;;;5019388;28;20967;-68
2022/09/28 10:51:38;;;;;;;12.53;11.53;;;16.70;97.50;;;;;;5022279;28;20481;-64
2022/09/28 10:54:03;;;;;;;32.93;28.90;;;16.80;97.80;;;;;;5022524;28;20492;-64
2022/09/28 10:56:35;;;;;;;171.97;142.63;;;16.70;97.20;;;;;;5023014;28;20505;-64
2022/09/28 10:59:21;;;;;;;17.47;15.77;;;16.80;99.30;;;;;;5004524;28;20666;-64
2022/09/28 11:01:47;;;;;;;12.33;11.23;;;16.90;97.70;;;;;;5022537;28;20456;-64
2022/09/28 11:04:22;;;;;;;11.83;10.73;;;17.00;99.20;;;;;;5022545;28;20401;-63
2022/09/28 11:06:49;;;;;;;12.40;11.20;;;17.00;97.40;;;;;;5004751;28;20929;-64
2022/09/28 11:09:27;;;;;;;11.50;10.50;;;16.90;95.90;;;;;;5002087;28;20450;-64
2022/09/28 11:11:53;;;;;;;11.60;10.50;;;16.70;95.00;;;;;;5009358;28;20548;-64
2022/09/28 11:14:34;;;;;;;12.30;11.30;;;16.50;95.70;;;;;;5013594;28;20426;-64
2022/09/28 11:17:37;;;;;;;12.13;11.03;;;16.30;96.30;;;;;;5015302;28;20477;-64
2022/09/28 11:20:23;;;;;;;12.70;11.70;;;16.00;96.70;;;;;;5015294;28;20405;-64
2022/09/28 11:22:53;;;;;;;12.73;11.63;;;15.80;97.20;;;;;;5007885;28;20436;-64
2022/09/28 11:25:22;;;;;;;13.53;12.30;;;15.60;98.00;;;;;;5015863;28;20418;-64
2022/09/28 11:27:51;;;;;;;13.30;12.10;;;15.40;98.40;;;;;;5015121;28;20414;-64
2022/09/28 11:30:44;;;;;;;13.07;11.87;;;15.30;98.70;;;;;;5015585;28;20466;-64
2022/09/28 11:33:19;;;;;;;13.47;12.17;;;15.20;98.30;;;;;;5015608;28;20507;-63
2022/09/28 11:35:59;;;;;;;12.93;11.80;;;15.00;98.80;;;;;;5013001;28;20456;-64
2022/09/28 11:38:46;;;;;;;12.57;11.37;;;14.90;98.90;;;;;;5014598;28;20440;-64
2022/09/28 11:41:36;;;;;;;11.77;10.67;;;15.00;99.90;;;;;;5015642;28;20419;-63
2022/09/28 11:44:36;;;;;;;11.67;10.67;;;15.20;99.90;;;;;;5014831;28;20433;-64
2022/09/28 11:47:21;;;;;;;10.93;10.03;;;15.30;99.90;;;;;;5014516;28;20427;-64
2022/09/28 11:49:59;;;;;;;10.97;10.17;;;15.40;99.90;;;;;;5014790;28;20403;-64
2022/09/28 11:52:40;;;;;;;11.00;10.00;;;15.40;99.90;;;;;;5014991;28;20452;-64
2022/09/28 11:55:16;;;;;;;10.30;9.50;;;15.40;99.90;;;;;;5014367;28;20888;-64
2022/09/28 11:57:46;;;;;;;10.27;9.37;;;15.40;99.90;;;;;;5015204;28;20524;-64
2022/09/28 12:00:16;;;;;;;10.57;9.57;;;15.30;99.90;;;;;;5015119;28;20493;-64
2022/09/28 12:02:59;;;;;;;10.33;9.53;;;15.30;99.90;;;;;;5015158;28;20411;-64
2022/09/28 12:05:33;;;;;;;10.43;9.53;;;15.30;99.90;;;;;;5023423;28;20467;-64
2022/09/28 12:08:10;;;;;;;9.50;8.63;;;15.20;99.90;;;;;;5034148;28;20539;-64
2022/09/28 12:10:50;;;;;;;8.70;8.00;;;15.20;99.90;;;;;;5034593;28;20463;-64
2022/09/28 12:13:21;;;;;;;8.23;7.53;;;15.10;99.90;;;;;;5034333;28;20413;-64
2022/09/28 12:16:00;;;;;;;8.10;7.40;;;15.10;99.90;;;;;;5033798;28;20407;-69
2022/09/28 12:18:34;;;;;;;8.33;7.53;;;15.10;99.90;;;;;;5034218;28;20415;-64
2022/09/28 12:21:26;;;;;;;7.37;6.87;;;15.10;99.90;;;;;;5015941;28;20949;-64
2022/09/28 12:24:22;;;;;;;7.90;7.20;;;15.10;99.90;;;;;;5033687;28;20438;-64
2022/09/28 12:26:51;;;;;;;9.07;8.20;;;15.10;99.90;;;;;;5033808;28;20418;-64
2022/09/28 12:29:31;;;;;;;8.13;7.43;;;15.20;99.90;;;;;;5033243;28;20413;-65
2022/09/28 12:32:02;;;;;;;9.83;8.70;;;15.20;99.90;;;;;;5021682;28;20452;-66
2022/09/28 12:34:28;;;;;;;10.07;9.17;;;15.10;99.90;;;;;;5013754;28;20425;-65
2022/09/28 12:37:21;;;;;;;10.97;10.07;;;15.60;99.90;;;;;;5031533;28;20444;-66
2022/09/28 12:40:00;;;;;;;9.37;8.57;;;15.90;99.90;;;;;;5030366;28;20167;-66
2022/09/28 12:42:59;;;;;;;10.07;9.27;;;16.30;99.90;;;;;;5025267;28;20895;-66
2022/09/28 12:45:40;;;;;;;102.23;68.53;;;16.60;99.20;;;;;;5022198;28;20418;-65
2022/09/28 12:48:36;;;;;;;17.57;15.70;;;16.50;96.70;;;;;;5024578;28;20409;-66
2022/09/28 12:51:33;;;;;;;9.50;8.70;;;16.00;97.30;;;;;;5023712;28;20797;-65
2022/09/28 12:54:12;;;;;;;10.10;9.30;;;15.70;99.40;;;;;;5024117;28;20420;-66
2022/09/28 12:57:03;;;;;;;11.50;10.53;;;15.60;99.50;;;;;;5023777;28;20435;-65
2022/09/28 12:59:45;;;;;;;13.40;12.10;;;15.60;99.90;;;;;;5026851;28;21483;-65
2022/09/28 13:02:47;;;;;;;15.30;12.97;;;16.00;99.90;;;;;;5022967;28;20452;-65
2022/09/28 13:05:37;;;;;;;7.90;7.50;;;16.40;98.70;;;;;;5023995;28;20473;-65
2022/09/28 13:08:30;;;;;;;12.07;10.97;;;16.50;97.70;;;;;;5023100;28;20424;-65
2022/09/28 13:10:56;;;;;;;7.47;6.97;;;16.40;98.30;;;;;;5022764;28;20506;-65
2022/09/28 13:13:27;;;;;;;11.00;9.90;;;16.60;98.20;;;;;;5021790;28;20458;-65